Time;durP1;ratioP1;P1;durP2;ratioP2;P2;SDS_P1;SDS_P2;PMS_P1;PMS_P2;Temp;Humidity;BMP_temperature;BMP_pressure;BME280_temperature;BME280_humidity;BME280_pressure;Samples;Min_cycle;Max_cycle;Signal;HPM_P1;HPM_P2
2023/04/20 00:01:38;;;;;;;12.95;10.43;;;;;;;;;;4993912;28;20035;-72
2023/04/20 00:04:05;;;;;;;12.32;8.80;;;;;;;;;;4993722;28;20030;-71
2023/04/20 00:06:32;;;;;;;10.35;8.57;;;;;;;;;;4994318;28;20543;-71
2023/04/20 00:08:59;;;;;;;13.90;10.02;;;;;;;;;;4993838;28;20113;-71
2023/04/20 00:11:25;;;;;;;10.38;8.75;;;;;;;;;;4994209;28;20022;-72
2023/04/20 00:13:51;;;;;;;9.15;7.55;;;;;;;;;;4994050;28;20026;-71
2023/04/20 00:16:17;;;;;;;8.50;7.40;;;;;;;;;;4977469;28;20038;-71
2023/04/20 00:18:47;;;;;;;8.73;7.45;;;;;;;;;;4994687;28;20053;-71
2023/04/20 00:21:13;;;;;;;9.55;6.80;;;;;;;;;;4976582;28;20497;-71
2023/04/20 00:23:39;;;;;;;9.77;7.97;;;;;;;;;;4974326;28;20030;-72
2023/04/20 00:26:05;;;;;;;9.55;6.95;;;;;;;;;;4994979;28;20074;-71
2023/04/20 00:28:31;;;;;;;7.30;6.43;;;;;;;;;;4995802;28;20065;-71
2023/04/20 00:30:57;;;;;;;8.55;6.97;;;;;;;;;;4977476;28;20022;-69
2023/04/20 00:33:23;;;;;;;7.78;6.65;;;;;;;;;;4993762;28;20105;-70
2023/04/20 00:35:49;;;;;;;8.50;6.93;;;;;;;;;;4993650;28;20027;-70
2023/04/20 00:38:15;;;;;;;8.48;7.32;;;;;;;;;;4993281;28;20094;-71
2023/04/20 00:40:47;;;;;;;8.60;7.45;;;;;;;;;;4993365;28;20054;-71
2023/04/20 00:43:14;;;;;;;8.82;7.32;;;;;;;;;;4993657;28;20041;-70
2023/04/20 00:45:40;;;;;;;10.00;8.48;;;;;;;;;;4976024;28;20025;-71
2023/04/20 00:48:06;;;;;;;10.23;8.80;;;;;;;;;;5008312;28;20033;-71
2023/04/20 00:50:33;;;;;;;10.85;8.68;;;;;;;;;;4975963;28;20130;-73
2023/04/20 00:53:00;;;;;;;8.82;7.85;;;;;;;;;;4992545;28;20113;-70
2023/04/20 00:55:26;;;;;;;12.80;9.13;;;;;;;;;;4993340;28;20025;-71
2023/04/20 00:57:52;;;;;;;11.88;9.25;;;;;;;;;;4993357;28;20030;-71
2023/04/20 01:00:19;;;;;;;10.88;9.10;;;;;;;;;;4994127;28;20527;-72
2023/04/20 01:02:45;;;;;;;10.70;8.40;;;;;;;;;;4993576;28;20031;-71
2023/04/20 01:05:11;;;;;;;10.80;8.80;;;;;;;;;;4976196;28;20510;-71
2023/04/20 01:07:37;;;;;;;12.90;9.13;;;;;;;;;;4992907;28;20108;-72
2023/04/20 01:10:03;;;;;;;12.80;10.15;;;;;;;;;;4993087;28;20018;-71
2023/04/20 01:12:29;;;;;;;15.98;11.43;;;;;;;;;;4993285;28;20026;-72
2023/04/20 01:14:55;;;;;;;14.57;11.90;;;;;;;;;;4992914;28;20122;-72
2023/04/20 01:17:22;;;;;;;19.20;13.93;;;;;;;;;;4992633;28;20069;-72
2023/04/20 01:19:49;;;;;;;17.42;13.80;;;;;;;;;;4992462;28;20042;-71
2023/04/20 01:22:17;;;;;;;18.13;14.10;;;;;;;;;;4992660;28;20428;-71
2023/04/20 01:24:43;;;;;;;17.83;13.43;;;;;;;;;;4992907;28;20089;-71
2023/04/20 01:27:09;;;;;;;18.50;14.30;;;;;;;;;;4992696;28;20026;-72
2023/04/20 01:29:35;;;;;;;21.13;15.20;;;;;;;;;;4992703;28;20457;-72
2023/04/20 01:32:01;;;;;;;21.80;15.65;;;;;;;;;;4992591;28;20053;-72
2023/04/20 01:34:27;;;;;;;19.48;15.40;;;;;;;;;;4992532;28;20476;-72
2023/04/20 01:36:53;;;;;;;20.80;15.40;;;;;;;;;;4992582;28;20033;-72
2023/04/20 01:39:19;;;;;;;19.02;15.15;;;;;;;;;;4975067;28;20081;-72
2023/04/20 01:41:45;;;;;;;21.20;16.00;;;;;;;;;;4992365;28;20113;-72
2023/04/20 01:44:11;;;;;;;22.23;15.43;;;;;;;;;;4992339;28;20077;-72
2023/04/20 01:46:38;;;;;;;23.98;17.42;;;;;;;;;;4997713;28;20018;-72
2023/04/20 01:49:04;;;;;;;22.35;16.67;;;;;;;;;;4999784;28;20023;-72
2023/04/20 01:51:32;;;;;;;21.98;16.75;;;;;;;;;;4992196;28;20150;-72
2023/04/20 01:53:58;;;;;;;23.73;16.75;;;;;;;;;;4992491;28;20018;-72
2023/04/20 01:56:25;;;;;;;22.85;17.25;;;;;;;;;;4992298;28;20033;-73
2023/04/20 01:58:50;;;;;;;24.60;17.35;;;;;;;;;;4991802;28;20034;-72
2023/04/20 02:01:16;;;;;;;26.67;18.08;;;;;;;;;;4992085;28;20544;-73
2023/04/20 02:03:42;;;;;;;27.25;18.33;;;;;;;;;;4992232;28;20069;-74
2023/04/20 02:06:09;;;;;;;28.45;18.52;;;;;;;;;;4992018;28;20144;-72
2023/04/20 02:08:35;;;;;;;25.83;16.52;;;;;;;;;;4992232;28;20046;-72
2023/04/20 02:11:01;;;;;;;24.65;15.48;;;;;;;;;;4992382;28;20509;-73
2023/04/20 02:13:27;;;;;;;22.48;16.52;;;;;;;;;;4992312;28;20058;-72
2023/04/20 02:15:53;;;;;;;19.55;14.32;;;;;;;;;;4974691;28;20507;-72
2023/04/20 02:18:20;;;;;;;21.58;15.80;;;;;;;;;;4991673;28;20029;-72
2023/04/20 02:20:46;;;;;;;25.33;16.17;;;;;;;;;;4991882;28;20019;-72
2023/04/20 02:23:12;;;;;;;22.38;15.98;;;;;;;;;;4991981;28;20561;-72
2023/04/20 02:25:38;;;;;;;21.65;16.00;;;;;;;;;;4991766;28;20046;-72
2023/04/20 02:28:04;;;;;;;23.83;17.30;;;;;;;;;;4991661;28;20081;-72
2023/04/20 02:30:30;;;;;;;23.50;16.23;;;;;;;;;;4991630;28;20443;-72
2023/04/20 02:32:56;;;;;;;24.67;17.98;;;;;;;;;;4991800;28;20053;-71
2023/04/20 02:35:22;;;;;;;27.02;18.52;;;;;;;;;;4990107;28;20432;-72
2023/04/20 02:37:48;;;;;;;28.33;18.23;;;;;;;;;;4987390;28;20034;-73
2023/04/20 02:40:14;;;;;;;27.85;17.80;;;;;;;;;;4989523;28;20033;-72
2023/04/20 02:42:40;;;;;;;27.90;18.83;;;;;;;;;;4991227;28;20416;-72
2023/04/20 02:45:07;;;;;;;25.55;17.83;;;;;;;;;;4974413;28;20030;-72
2023/04/20 02:47:33;;;;;;;30.23;19.90;;;;;;;;;;4994496;28;20026;-72
2023/04/20 02:49:59;;;;;;;29.48;19.13;;;;;;;;;;4991409;28;20031;-72
2023/04/20 02:52:25;;;;;;;30.75;19.67;;;;;;;;;;4991805;28;20018;-72
2023/04/20 02:54:51;;;;;;;32.05;20.90;;;;;;;;;;4991880;28;20530;-72
2023/04/20 02:57:17;;;;;;;31.75;19.58;;;;;;;;;;4991163;28;20022;-72
2023/04/20 02:59:43;;;;;;;30.80;21.02;;;;;;;;;;4991416;28;20057;-72
2023/04/20 03:02:09;;;;;;;34.88;21.90;;;;;;;;;;4995851;28;20387;-73
2023/04/20 03:04:35;;;;;;;33.13;20.80;;;;;;;;;;4974015;28;20034;-71
2023/04/20 03:07:02;;;;;;;33.55;21.75;;;;;;;;;;4991587;28;20022;-72
2023/04/20 03:09:28;;;;;;;30.48;21.42;;;;;;;;;;4991565;28;20077;-73
2023/04/20 03:11:54;;;;;;;31.20;21.98;;;;;;;;;;4991262;28;20397;-73
2023/04/20 03:14:21;;;;;;;30.23;21.00;;;;;;;;;;4973998;28;20046;-73
2023/04/20 03:16:47;;;;;;;29.23;20.38;;;;;;;;;;4993239;28;20120;-72
2023/04/20 03:19:13;;;;;;;26.55;19.33;;;;;;;;;;4994636;28;20049;-73
2023/04/20 03:21:39;;;;;;;27.08;18.75;;;;;;;;;;5010870;28;20115;-71
2023/04/20 03:24:06;;;;;;;28.73;20.30;;;;;;;;;;4995632;28;20117;-72
2023/04/20 03:26:32;;;;;;;34.40;21.48;;;;;;;;;;4978957;28;20019;-72
2023/04/20 03:28:58;;;;;;;34.83;21.52;;;;;;;;;;4997099;28;20027;-72
2023/04/20 03:31:24;;;;;;;31.67;21.45;;;;;;;;;;4997486;28;20046;-72
2023/04/20 03:33:50;;;;;;;35.67;22.90;;;;;;;;;;4979319;28;20489;-72
2023/04/20 03:36:16;;;;;;;35.25;22.23;;;;;;;;;;4995993;28;20031;-71
2023/04/20 03:38:42;;;;;;;38.97;23.70;;;;;;;;;;4994539;28;20027;-71
2023/04/20 03:41:08;;;;;;;39.13;24.02;;;;;;;;;;4994779;28;20027;-72
2023/04/20 03:43:34;;;;;;;43.58;25.63;;;;;;;;;;4994517;28;20109;-72
2023/04/20 03:46:00;;;;;;;38.55;24.50;;;;;;;;;;4994379;28;20019;-71
2023/04/20 03:48:26;;;;;;;34.83;22.63;;;;;;;;;;4994311;28;20029;-71
2023/04/20 03:50:53;;;;;;;37.22;24.33;;;;;;;;;;4994686;28;20050;-72
2023/04/20 03:53:19;;;;;;;38.55;24.67;;;;;;;;;;4994423;28;20029;-71
2023/04/20 03:55:45;;;;;;;39.33;24.27;;;;;;;;;;4994421;28;20077;-71
2023/04/20 03:58:11;;;;;;;41.47;25.77;;;;;;;;;;4994060;28;20053;-69
2023/04/20 04:00:37;;;;;;;40.50;26.20;;;;;;;;;;4994098;28;20551;-71
2023/04/20 04:03:03;;;;;;;40.45;25.90;;;;;;;;;;5010519;28;20038;-71
2023/04/20 04:05:29;;;;;;;40.70;26.55;;;;;;;;;;4998702;28;20050;-71
2023/04/20 04:07:55;;;;;;;36.78;24.80;;;;;;;;;;4993499;28;20526;-71
2023/04/20 04:10:21;;;;;;;40.33;25.83;;;;;;;;;;4994050;28;20019;-70
2023/04/20 04:12:47;;;;;;;35.83;23.33;;;;;;;;;;4993907;28;20084;-70
2023/04/20 04:15:14;;;;;;;35.78;24.80;;;;;;;;;;4993773;28;20029;-71
2023/04/20 04:17:40;;;;;;;39.38;25.23;;;;;;;;;;5000861;28;20033;-70
2023/04/20 04:20:10;;;;;;;32.63;23.50;;;;;;;;;;4993833;28;20026;-71
2023/04/20 04:22:36;;;;;;;36.10;26.15;;;;;;;;;;4977909;28;20034;-71
2023/04/20 04:25:02;;;;;;;37.42;25.40;;;;;;;;;;4993281;28;20022;-71
2023/04/20 04:27:33;;;;;;;38.25;25.25;;;;;;;;;;4993248;28;20025;-71
2023/04/20 04:29:59;;;;;;;;;;;;;;;;;;4993576;28;20026;-72
2023/04/20 04:32:25;;;;;;;30.70;22.23;;;;;;;;;;4993642;28;19919;-71
2023/04/20 04:34:52;;;;;;;32.83;22.92;;;;;;;;;;4975926;28;20018;-71
2023/04/20 04:37:18;;;;;;;33.33;22.52;;;;;;;;;;4993287;28;20428;-70
2023/04/20 04:39:45;;;;;;;37.60;24.20;;;;;;;;;;4993291;28;20027;-71
2023/04/20 04:42:11;;;;;;;36.03;24.27;;;;;;;;;;4993551;28;20087;-72
2023/04/20 04:44:38;;;;;;;33.22;22.85;;;;;;;;;;4975397;28;20038;-72
2023/04/20 04:47:05;;;;;;;34.00;22.23;;;;;;;;;;4993163;28;20038;-71
2023/04/20 04:49:32;;;;;;;35.60;24.27;;;;;;;;;;4991730;28;20482;-68
2023/04/20 04:51:58;;;;;;;33.08;22.25;;;;;;;;;;4992514;28;20097;-71
2023/04/20 04:54:24;;;;;;;29.65;21.75;;;;;;;;;;4979612;28;20022;-72
2023/04/20 04:56:50;;;;;;;32.78;20.23;;;;;;;;;;4992486;28;20033;-72
2023/04/20 04:59:16;;;;;;;32.50;22.05;;;;;;;;;;4991402;28;20030;-71
2023/04/20 05:01:42;;;;;;;36.90;25.08;;;;;;;;;;4992484;28;20034;-70
2023/04/20 05:04:08;;;;;;;36.78;22.98;;;;;;;;;;4992297;28;20037;-72
2023/04/20 05:06:34;;;;;;;35.33;24.38;;;;;;;;;;4992635;28;20048;-71
2023/04/20 05:09:00;;;;;;;36.33;25.38;;;;;;;;;;4991923;28;20023;-72
2023/04/20 05:11:26;;;;;;;33.03;23.17;;;;;;;;;;4992390;28;20041;-71
2023/04/20 05:13:53;;;;;;;34.00;23.33;;;;;;;;;;4992025;28;20033;-71
2023/04/20 05:16:19;;;;;;;33.47;21.60;;;;;;;;;;4992081;28;20490;-71
2023/04/20 05:18:46;;;;;;;33.53;22.20;;;;;;;;;;4973900;28;20480;-72
2023/04/20 05:21:12;;;;;;;33.50;21.50;;;;;;;;;;4992217;28;20026;-71
2023/04/20 05:23:38;;;;;;;34.25;23.48;;;;;;;;;;4991881;28;20471;-71
2023/04/20 05:26:05;;;;;;;31.00;22.05;;;;;;;;;;4991350;28;20046;-71
2023/04/20 05:28:32;;;;;;;32.20;21.17;;;;;;;;;;4991039;28;20025;-72
2023/04/20 05:30:59;;;;;;;29.48;20.08;;;;;;;;;;4992118;28;20485;-72
2023/04/20 05:33:25;;;;;;;34.85;21.83;;;;;;;;;;4991926;28;20037;-71
2023/04/20 05:35:55;;;;;;;30.92;20.85;;;;;;;;;;4991849;28;20033;-71
2023/04/20 05:38:21;;;;;;;32.67;21.87;;;;;;;;;;4993325;28;20026;-72
2023/04/20 05:40:47;;;;;;;35.60;23.77;;;;;;;;;;4994193;28;20030;-69
2023/04/20 05:43:13;;;;;;;34.17;22.65;;;;;;;;;;4974382;28;20378;-70
2023/04/20 05:45:39;;;;;;;36.53;23.10;;;;;;;;;;4992095;28;20026;-71
2023/04/20 05:48:05;;;;;;;34.45;22.63;;;;;;;;;;4990674;28;20026;-70
2023/04/20 05:50:31;;;;;;;34.03;21.95;;;;;;;;;;4991602;28;20054;-71
2023/04/20 05:52:57;;;;;;;32.90;23.10;;;;;;;;;;4991620;28;20026;-70
2023/04/20 05:55:24;;;;;;;33.13;21.70;;;;;;;;;;4998629;28;20037;-71
2023/04/20 05:57:53;;;;;;;30.48;20.45;;;;;;;;;;4992124;28;20027;-69
2023/04/20 06:00:20;;;;;;;32.40;22.08;;;;;;;;;;4991057;28;20034;-72
2023/04/20 06:02:46;;;;;;;32.05;22.60;;;;;;;;;;4970846;23;20138;-76
2023/04/20 06:05:12;;;;;;;28.48;18.98;;;;;;;;;;4971682;28;20027;-76
2023/04/20 06:07:39;;;;;;;31.50;20.60;;;;;;;;;;4972856;28;20027;-76
2023/04/20 06:10:07;;;;;;;31.15;20.27;;;;;;;;;;4972889;28;20066;-77
2023/04/20 06:12:33;;;;;;;29.35;19.48;;;;;;;;;;4958912;28;20047;-75
2023/04/20 06:14:59;;;;;;;29.52;19.63;;;;;;;;;;4952935;28;20023;-75
2023/04/20 06:17:25;;;;;;;29.08;19.73;;;;;;;;;;4952938;28;20029;-75
2023/04/20 06:19:51;;;;;;;28.27;19.77;;;;;;;;;;4952597;28;20543;-74
2023/04/20 06:22:17;;;;;;;27.67;18.70;;;;;;;;;;4953208;28;20011;-77
2023/04/20 06:24:44;;;;;;;23.65;17.23;;;;;;;;;;4953265;28;20497;-79
2023/04/20 06:27:10;;;;;;;24.65;17.88;;;;;;;;;;4953058;28;20032;-73
2023/04/20 06:29:36;;;;;;;27.23;18.63;;;;;;;;;;4953005;28;20106;-73
2023/04/20 06:32:03;;;;;;;30.38;19.65;;;;;;;;;;4951865;28;20170;-74
2023/04/20 06:34:29;;;;;;;29.63;20.20;;;;;;;;;;4951562;28;20561;-73
2023/04/20 06:36:55;;;;;;;32.10;21.98;;;;;;;;;;4952950;28;20038;-72
2023/04/20 06:39:21;;;;;;;31.60;21.10;;;;;;;;;;4952662;28;20086;-74
2023/04/20 06:41:47;;;;;;;31.88;21.58;;;;;;;;;;4951272;28;20397;-75
2023/04/20 06:44:13;;;;;;;35.47;22.40;;;;;;;;;;4951332;28;20023;-74
2023/04/20 06:46:39;;;;;;;32.97;22.58;;;;;;;;;;4951099;28;20027;-75
2023/04/20 06:49:05;;;;;;;29.50;19.75;;;;;;;;;;4949548;28;20019;-75
2023/04/20 06:51:31;;;;;;;29.27;20.08;;;;;;;;;;4952838;28;20075;-74
2023/04/20 06:53:57;;;;;;;30.35;19.20;;;;;;;;;;4954936;28;20479;-75
2023/04/20 06:56:24;;;;;;;25.60;17.85;;;;;;;;;;4954757;28;20023;-75
2023/04/20 06:58:50;;;;;;;25.63;18.52;;;;;;;;;;4956389;28;20023;-77
2023/04/20 07:01:16;;;;;;;30.65;19.35;;;;;;;;;;4956833;28;20505;-76
2023/04/20 07:03:42;;;;;;;28.73;20.50;;;;;;;;;;4955293;29;20035;-76
2023/04/20 07:06:10;;;;;;;32.50;20.20;;;;;;;;;;4956549;28;20429;-76
2023/04/20 07:08:36;;;;;;;30.48;20.70;;;;;;;;;;4956351;28;20023;-78
2023/04/20 07:11:02;;;;;;;31.77;19.77;;;;;;;;;;4956841;28;20019;-77
2023/04/20 07:13:30;;;;;;;31.42;19.13;;;;;;;;;;4956936;28;20034;-77
2023/04/20 07:15:56;;;;;;;31.48;19.55;;;;;;;;;;4957259;29;20037;-76
2023/04/20 07:18:22;;;;;;;31.08;18.85;;;;;;;;;;4955661;28;20038;-75
2023/04/20 07:20:48;;;;;;;25.73;18.63;;;;;;;;;;4956233;28;20126;-76
2023/04/20 07:23:14;;;;;;;31.85;21.98;;;;;;;;;;4957314;29;20028;-76
2023/04/20 07:25:40;;;;;;;30.75;20.15;;;;;;;;;;4957237;28;20019;-76
2023/04/20 07:28:06;;;;;;;26.75;19.23;;;;;;;;;;4956270;29;20016;-76
2023/04/20 07:30:32;;;;;;;24.90;19.05;;;;;;;;;;4956196;28;20483;-76
2023/04/20 07:32:58;;;;;;;26.20;17.38;;;;;;;;;;4956032;28;20031;-76
2023/04/20 07:35:24;;;;;;;22.95;16.52;;;;;;;;;;4956172;28;20027;-75
2023/04/20 07:37:50;;;;;;;22.90;16.48;;;;;;;;;;4955517;28;20039;-77
2023/04/20 07:40:16;;;;;;;19.73;15.15;;;;;;;;;;4956275;29;20050;-77
2023/04/20 07:42:42;;;;;;;20.30;15.82;;;;;;;;;;4955725;28;20498;-78
2023/04/20 07:45:10;;;;;;;19.13;15.45;;;;;;;;;;4955841;28;20027;-77
2023/04/20 07:47:36;;;;;;;19.63;15.32;;;;;;;;;;4955519;28;20019;-77
2023/04/20 07:50:06;;;;;;;17.63;14.10;;;;;;;;;;4954541;28;20409;-80
2023/04/20 07:52:33;;;;;;;19.83;15.45;;;;;;;;;;4955877;28;20030;-76
2023/04/20 07:54:59;;;;;;;17.38;13.85;;;;;;;;;;4956096;28;20059;-76
2023/04/20 07:57:25;;;;;;;18.83;14.43;;;;;;;;;;4955585;28;20023;-75
2023/04/20 07:59:52;;;;;;;18.05;13.93;;;;;;;;;;4955651;28;20023;-76
2023/04/20 08:02:18;;;;;;;19.10;14.80;;;;;;;;;;4954112;28;20478;-77
2023/04/20 08:04:45;;;;;;;20.95;14.82;;;;;;;;;;4955597;29;20074;-75
2023/04/20 08:07:11;;;;;;;20.30;15.40;;;;;;;;;;4954063;29;20031;-76
2023/04/20 08:09:37;;;;;;;18.98;14.80;;;;;;;;;;4955178;29;20102;-79
2023/04/20 08:12:03;;;;;;;18.63;15.27;;;;;;;;;;4953919;28;20047;-76
2023/04/20 08:14:29;;;;;;;18.05;14.40;;;;;;;;;;4954837;28;20031;-76
2023/04/20 08:16:55;;;;;;;18.38;14.70;;;;;;;;;;4955180;29;20023;-75
2023/04/20 08:19:22;;;;;;;24.63;15.40;;;;;;;;;;4954811;28;20438;-76
2023/04/20 08:21:48;;;;;;;19.83;14.93;;;;;;;;;;4953707;28;20035;-77
2023/04/20 08:24:14;;;;;;;19.80;14.80;;;;;;;;;;4955092;29;20070;-76
2023/04/20 08:26:40;;;;;;;21.20;15.23;;;;;;;;;;4954915;28;20034;-75
2023/04/20 08:29:06;;;;;;;18.83;14.82;;;;;;;;;;4954450;28;20437;-76
2023/04/20 08:31:32;;;;;;;19.40;14.35;;;;;;;;;;4953760;28;20035;-76
2023/04/20 08:33:58;;;;;;;23.33;15.68;;;;;;;;;;4954539;28;20030;-74
2023/04/20 08:36:26;;;;;;;24.10;14.88;;;;;;;;;;4953101;28;20028;-76
2023/04/20 08:39:13;;;;;;;18.90;15.00;;;;;;;;;;4954286;28;20023;-76
2023/04/20 08:41:39;;;;;;;16.13;13.90;;;;;;;;;;4954317;28;20059;-77
2023/04/20 08:44:06;;;;;;;18.55;14.50;;;;;;;;;;4954363;28;20552;-76
2023/04/20 08:46:32;;;;;;;18.50;15.13;;;;;;;;;;4954867;28;20089;-77
2023/04/20 08:49:01;;;;;;;17.70;14.43;;;;;;;;;;4954473;29;20102;-79
2023/04/20 08:51:27;;;;;;;19.80;16.35;;;;;;;;;;4954563;28;20390;-75
2023/04/20 08:53:55;;;;;;;21.95;15.85;;;;;;;;;;4954139;28;20031;-75
2023/04/20 08:56:32;;;;;;;21.67;16.00;;;;;;;;;;4954427;28;20030;-76
2023/04/20 08:58:59;;;;;;;20.02;17.10;;;;;;;;;;4954121;29;20031;-75
2023/04/20 09:01:28;;;;;;;23.02;17.70;;;;;;;;;;4954266;28;20105;-76
2023/04/20 09:03:54;;;;;;;21.20;17.35;;;;;;;;;;4954813;29;20055;-74
2023/04/20 09:06:21;;;;;;;27.08;17.73;;;;;;;;;;4944552;29;20703;-75
2023/04/20 09:08:47;;;;;;;24.38;17.63;;;;;;;;;;4950860;28;20430;-75
2023/04/20 09:11:24;;;;;;;21.63;16.63;;;;;;;;;;4952473;28;20023;-76
2023/04/20 09:14:00;;;;;;;22.50;16.75;;;;;;;;;;4950751;28;20083;-77
2023/04/20 09:16:26;;;;;;;21.85;16.95;;;;;;;;;;4951267;29;20109;-77
2023/04/20 09:18:53;;;;;;;24.05;17.98;;;;;;;;;;4952551;29;20575;-74
2023/04/20 09:21:20;;;;;;;21.15;17.60;;;;;;;;;;4951061;28;20034;-76
2023/04/20 09:23:55;;;;;;;28.25;17.98;;;;;;;;;;4952042;28;20016;-76
2023/04/20 09:26:21;;;;;;;22.13;18.10;;;;;;;;;;4952153;28;20393;-76
2023/04/20 09:28:47;;;;;;;22.92;17.38;;;;;;;;;;4950626;29;20430;-77
2023/04/20 09:31:20;;;;;;;22.13;17.77;;;;;;;;;;4951937;28;20027;-78
2023/04/20 09:34:00;;;;;;;25.38;19.23;;;;;;;;;;4935156;29;20031;-76
2023/04/20 09:36:40;;;;;;;25.92;20.55;;;;;;;;;;4951610;29;20023;-75
2023/04/20 09:39:10;;;;;;;24.08;19.42;;;;;;;;;;4954100;29;20030;-77
2023/04/20 09:41:37;;;;;;;26.00;19.77;;;;;;;;;;4954052;28;20019;-76
2023/04/20 09:44:03;;;;;;;25.95;20.13;;;;;;;;;;4953991;29;20034;-77
2023/04/20 09:46:30;;;;;;;25.40;20.17;;;;;;;;;;4953894;28;20026;-75
2023/04/20 09:48:58;;;;;;;27.67;19.75;;;;;;;;;;4953683;29;20023;-76
2023/04/20 09:51:26;;;;;;;29.73;21.88;;;;;;;;;;4953525;28;20393;-76
2023/04/20 09:53:53;;;;;;;25.88;20.88;;;;;;;;;;4953411;28;20031;-75
2023/04/20 09:56:20;;;;;;;30.42;21.42;;;;;;;;;;4951821;28;20022;-75
2023/04/20 09:58:46;;;;;;;28.00;21.60;;;;;;;;;;4952318;28;20027;-77
2023/04/20 10:01:12;;;;;;;34.67;22.65;;;;;;;;;;4952586;28;20102;-76
2023/04/20 10:03:42;;;;;;;33.03;23.23;;;;;;;;;;4951207;28;20027;-75
2023/04/20 10:06:18;;;;;;;30.60;22.88;;;;;;;;;;4953103;28;20038;-77
2023/04/20 10:08:44;;;;;;;30.38;22.80;;;;;;;;;;4952019;29;20016;-77
2023/04/20 10:11:10;;;;;;;32.42;23.13;;;;;;;;;;4952985;28;20024;-78
2023/04/20 10:13:37;;;;;;;30.23;22.42;;;;;;;;;;4951480;29;20035;-79
2023/04/20 10:16:03;;;;;;;28.88;21.13;;;;;;;;;;4951050;29;20024;-76
2023/04/20 10:18:29;;;;;;;30.73;21.67;;;;;;;;;;4951551;28;20106;-78
2023/04/20 10:21:12;;;;;;;31.10;23.52;;;;;;;;;;4952619;28;20034;-75
2023/04/20 10:23:49;;;;;;;29.33;22.05;;;;;;;;;;4954373;28;20518;-75
2023/04/20 10:26:15;;;;;;;30.10;21.83;;;;;;;;;;4956107;28;20074;-75
2023/04/20 10:28:43;;;;;;;29.52;20.90;;;;;;;;;;4963910;28;20446;-75
2023/04/20 10:31:12;;;;;;;30.40;22.58;;;;;;;;;;4959294;28;20493;-75
2023/04/20 10:33:48;;;;;;;28.33;20.60;;;;;;;;;;4961524;28;20063;-76
2023/04/20 10:36:22;;;;;;;28.13;21.75;;;;;;;;;;4959976;28;20023;-76
2023/04/20 10:38:48;;;;;;;29.17;22.20;;;;;;;;;;4959389;28;20078;-76
2023/04/20 10:41:14;;;;;;;31.77;23.35;;;;;;;;;;4959370;28;20106;-76
2023/04/20 10:43:43;;;;;;;31.67;23.05;;;;;;;;;;4959584;28;20174;-76
2023/04/20 10:46:15;;;;;;;29.95;22.35;;;;;;;;;;4959892;28;20069;-75
2023/04/20 10:48:51;;;;;;;34.30;23.98;;;;;;;;;;4959573;28;20016;-74
2023/04/20 10:51:17;;;;;;;33.45;24.27;;;;;;;;;;4959215;28;20042;-76
2023/04/20 10:53:43;;;;;;;29.75;21.80;;;;;;;;;;4959274;28;20035;-74
2023/04/20 10:56:09;;;;;;;33.17;23.02;;;;;;;;;;4959315;28;20034;-75
2023/04/20 10:58:35;;;;;;;32.03;23.50;;;;;;;;;;4959108;29;20019;-72
2023/04/20 11:01:05;;;;;;;30.65;22.65;;;;;;;;;;4958970;28;20505;-74
2023/04/20 11:03:32;;;;;;;31.95;22.90;;;;;;;;;;4959105;28;20027;-74
2023/04/20 11:06:02;;;;;;;30.30;21.70;;;;;;;;;;4959336;29;20446;-74
2023/04/20 11:08:42;;;;;;;26.98;19.80;;;;;;;;;;4959265;28;20470;-74
2023/04/20 11:11:17;;;;;;;28.10;21.33;;;;;;;;;;4959074;28;20157;-74
2023/04/20 11:13:43;;;;;;;32.17;21.88;;;;;;;;;;4958628;28;20441;-76
2023/04/20 11:16:13;;;;;;;31.10;22.70;;;;;;;;;;4958942;29;20110;-76
2023/04/20 11:18:55;;;;;;;31.10;22.83;;;;;;;;;;4957721;28;20050;-76
2023/04/20 11:21:22;;;;;;;31.92;22.65;;;;;;;;;;4939001;29;20027;-74
2023/04/20 11:23:48;;;;;;;33.45;23.65;;;;;;;;;;4958493;29;20532;-75
2023/04/20 11:26:15;;;;;;;31.95;23.40;;;;;;;;;;4957521;29;20023;-75
2023/04/20 11:28:51;;;;;;;34.15;23.95;;;;;;;;;;4956231;28;20106;-75
2023/04/20 11:31:18;;;;;;;32.28;23.48;;;;;;;;;;4957505;28;20430;-75
2023/04/20 11:33:44;;;;;;;29.10;23.67;;;;;;;;;;4957451;29;20019;-75
2023/04/20 11:36:18;;;;;;;32.30;23.52;;;;;;;;;;4956723;28;20058;-74
2023/04/20 11:38:44;;;;;;;28.80;22.35;;;;;;;;;;4954061;29;20027;-75
2023/04/20 11:41:10;;;;;;;31.95;23.83;;;;;;;;;;4955723;28;20023;-76
2023/04/20 11:43:37;;;;;;;29.75;22.55;;;;;;;;;;4956276;29;20174;-75
2023/04/20 11:46:03;;;;;;;30.55;22.25;;;;;;;;;;4956158;29;20039;-75
2023/04/20 11:48:32;;;;;;;31.13;23.73;;;;;;;;;;4954846;29;20038;-77
2023/04/20 11:50:58;;;;;;;30.42;22.35;;;;;;;;;;4956006;28;20496;-76
2023/04/20 11:53:24;;;;;;;28.95;22.38;;;;;;;;;;4956477;28;20031;-75
2023/04/20 11:55:50;;;;;;;28.77;21.70;;;;;;;;;;4955879;28;20026;-76
2023/04/20 11:58:16;;;;;;;28.20;21.02;;;;;;;;;;4955643;28;20102;-76
2023/04/20 12:00:42;;;;;;;30.02;22.45;;;;;;;;;;4955969;29;20414;-77
2023/04/20 12:03:08;;;;;;;29.30;22.90;;;;;;;;;;4956238;28;20118;-76
2023/04/20 12:05:34;;;;;;;29.05;22.08;;;;;;;;;;4953798;28;20084;-75
2023/04/20 12:08:00;;;;;;;30.08;22.45;;;;;;;;;;4938045;29;20034;-75
2023/04/20 12:10:26;;;;;;;31.10;22.67;;;;;;;;;;4955633;29;20027;-75
2023/04/20 12:12:52;;;;;;;29.10;22.73;;;;;;;;;;4938580;29;20086;-75
2023/04/20 12:15:18;;;;;;;29.50;23.65;;;;;;;;;;4954182;28;20062;-75
2023/04/20 12:17:44;;;;;;;29.73;23.30;;;;;;;;;;4953601;29;20031;-75
2023/04/20 12:20:11;;;;;;;27.95;22.75;;;;;;;;;;4953584;28;20402;-75
2023/04/20 12:22:37;;;;;;;31.40;23.13;;;;;;;;;;4936342;29;20042;-75
2023/04/20 12:25:04;;;;;;;29.20;23.42;;;;;;;;;;4953664;28;20024;-75
2023/04/20 12:27:30;;;;;;;32.80;23.70;;;;;;;;;;4953812;28;20082;-76
2023/04/20 12:29:56;;;;;;;31.33;23.77;;;;;;;;;;4953730;29;20019;-76
2023/04/20 12:32:22;;;;;;;30.95;23.70;;;;;;;;;;4955053;28;20541;-76
2023/04/20 12:34:48;;;;;;;36.13;23.90;;;;;;;;;;4955290;29;20086;-75
2023/04/20 12:37:14;;;;;;;30.67;23.98;;;;;;;;;;4955382;28;20031;-76
2023/04/20 12:39:40;;;;;;;32.30;24.70;;;;;;;;;;4959730;28;20043;-76
2023/04/20 12:42:06;;;;;;;31.42;24.20;;;;;;;;;;4958928;28;20031;-76
2023/04/20 12:44:32;;;;;;;31.23;24.15;;;;;;;;;;4958106;28;20398;-76
2023/04/20 12:46:58;;;;;;;35.03;25.52;;;;;;;;;;4957964;29;20031;-75
2023/04/20 12:49:24;;;;;;;29.45;23.95;;;;;;;;;;4956944;28;20497;-76
2023/04/20 12:51:50;;;;;;;30.55;23.52;;;;;;;;;;4956043;28;20028;-76
2023/04/20 12:54:16;;;;;;;36.58;25.77;;;;;;;;;;4953922;28;20110;-74
2023/04/20 12:56:43;;;;;;;32.60;24.63;;;;;;;;;;4953849;29;20099;-75
2023/04/20 12:59:10;;;;;;;27.45;23.08;;;;;;;;;;4953572;28;20038;-75
2023/04/20 13:01:36;;;;;;;28.58;23.00;;;;;;;;;;4953702;28;20058;-75
2023/04/20 13:04:02;;;;;;;29.23;21.27;;;;;;;;;;4954664;28;20027;-75
2023/04/20 13:06:28;;;;;;;31.83;22.50;;;;;;;;;;4954797;28;20035;-76
2023/04/20 13:08:54;;;;;;;31.98;23.42;;;;;;;;;;4954373;29;20046;-76
2023/04/20 13:11:20;;;;;;;28.98;21.85;;;;;;;;;;4954310;28;20082;-75
2023/04/20 13:13:46;;;;;;;27.52;21.52;;;;;;;;;;4954568;29;20019;-75
2023/04/20 13:16:13;;;;;;;26.85;20.52;;;;;;;;;;4954231;28;20114;-76
2023/04/20 13:18:39;;;;;;;28.52;21.15;;;;;;;;;;4953941;29;20573;-76
2023/04/20 13:21:05;;;;;;;28.42;20.73;;;;;;;;;;4937049;28;20422;-76
2023/04/20 13:23:31;;;;;;;29.95;21.42;;;;;;;;;;4954004;28;20042;-76
2023/04/20 13:26:00;;;;;;;29.27;20.63;;;;;;;;;;4954423;29;20026;-77
2023/04/20 13:28:26;;;;;;;27.40;19.50;;;;;;;;;;4954035;28;20019;-76
2023/04/20 13:30:54;;;;;;;29.23;20.52;;;;;;;;;;4954322;28;20030;-75
2023/04/20 13:33:20;;;;;;;30.55;21.27;;;;;;;;;;4954191;28;20148;-76
2023/04/20 13:35:46;;;;;;;25.92;20.00;;;;;;;;;;4954320;29;20113;-78
2023/04/20 13:38:12;;;;;;;27.95;20.35;;;;;;;;;;4954223;29;20035;-76
2023/04/20 13:40:38;;;;;;;28.60;21.08;;;;;;;;;;4954160;28;20109;-76
2023/04/20 13:43:04;;;;;;;28.40;20.52;;;;;;;;;;4936508;29;20035;-76
2023/04/20 13:45:30;;;;;;;27.27;20.63;;;;;;;;;;4953985;28;20211;-76
2023/04/20 13:47:56;;;;;;;26.92;19.75;;;;;;;;;;4954724;28;20394;-76
2023/04/20 13:50:22;;;;;;;28.48;20.75;;;;;;;;;;4955737;28;20050;-75
2023/04/20 13:52:49;;;;;;;28.42;20.83;;;;;;;;;;4953864;28;20028;-76
2023/04/20 13:55:16;;;;;;;25.02;19.27;;;;;;;;;;4955065;28;20043;-76
2023/04/20 13:57:42;;;;;;;26.55;17.80;;;;;;;;;;4954027;29;20019;-75
2023/04/20 14:00:09;;;;;;;23.58;17.98;;;;;;;;;;4954764;28;20367;-75
2023/04/20 14:02:35;;;;;;;24.77;18.23;;;;;;;;;;4955084;28;20035;-75
2023/04/20 14:05:02;;;;;;;22.10;17.23;;;;;;;;;;4954184;28;20040;-75
2023/04/20 14:07:28;;;;;;;26.85;16.52;;;;;;;;;;4953309;29;20034;-76
2023/04/20 14:09:55;;;;;;;26.75;17.38;;;;;;;;;;4936280;29;20033;-76
2023/04/20 14:12:21;;;;;;;23.15;17.33;;;;;;;;;;4953505;28;20041;-76
2023/04/20 14:14:47;;;;;;;21.98;15.98;;;;;;;;;;4953507;28;20034;-76
2023/04/20 14:17:13;;;;;;;25.13;17.17;;;;;;;;;;4953184;29;20027;-76